createdAt,value
2017-10-25T00:00:14.269Z,936.88
2017-10-25T00:00:42.087Z,936.91
2017-10-25T00:01:10.081Z,936.89
2017-10-25T00:01:38.222Z,936.9
2017-10-25T00:02:06.178Z,936.91
2017-10-25T00:02:34.194Z,936.89
2017-10-25T00:03:02.025Z,936.94
2017-10-25T00:03:29.854Z,936.93
2017-10-25T00:03:57.884Z,936.93
2017-10-25T00:04:26.037Z,936.93
2017-10-25T00:04:54.061Z,936.92
2017-10-25T00:05:22.110Z,936.94
2017-10-25T00:05:50.125Z,936.97
2017-10-25T00:06:18.049Z,936.84
2017-10-25T00:06:46.068Z,936.97
2017-10-25T00:07:14.015Z,936.97
2017-10-25T00:07:42.057Z,936.94
2017-10-25T00:08:10.074Z,936.95
2017-10-25T00:08:38.237Z,936.96
2017-10-25T00:09:20.701Z,936.96
2017-10-25T00:09:48.723Z,936.96
2017-10-25T00:10:16.846Z,936.94
2017-10-25T00:10:44.868Z,936.89
2017-10-25T00:11:12.998Z,936.95
2017-10-25T00:11:41.010Z,936.91
2017-10-25T00:12:08.942Z,936.96
2017-10-25T00:12:37.075Z,936.94
2017-10-25T00:13:05.024Z,936.93
2017-10-25T00:13:33.123Z,936.95
2017-10-25T00:14:01.145Z,936.91
2017-10-25T00:14:29.216Z,936.91
2017-10-25T00:14:57.452Z,936.97
2017-10-25T00:15:26.241Z,936.97
2017-10-25T00:15:55.031Z,936.94
2017-10-25T00:16:23.056Z,937.01
2017-10-25T00:16:51.173Z,936.99
2017-10-25T00:17:19.177Z,936.94
2017-10-25T00:17:47.095Z,937.01
2017-10-25T00:18:14.996Z,937
2017-10-25T00:18:43.012Z,936.97
2017-10-25T00:19:11.031Z,937
2017-10-25T00:19:39.023Z,937
2017-10-25T00:20:07.138Z,937.04
2017-10-25T00:20:35.236Z,936.99
2017-10-25T00:21:03.278Z,937.03
2017-10-25T00:21:31.328Z,937
2017-10-25T00:21:59.349Z,936.98
2017-10-25T00:22:27.392Z,936.98
2017-10-25T00:22:55.516Z,936.99
2017-10-25T00:23:23.597Z,937.01
2017-10-25T00:23:51.708Z,937.02
2017-10-25T00:24:19.765Z,937.02
2017-10-25T00:24:47.876Z,937.03
2017-10-25T00:25:16.007Z,937.04
2017-10-25T00:25:44.005Z,937.01
2017-10-25T00:26:11.822Z,937.01
2017-10-25T00:26:39.763Z,937.07
2017-10-25T00:27:07.685Z,937.02
2017-10-25T00:27:35.691Z,937.03
2017-10-25T00:28:03.700Z,937
2017-10-25T00:28:31.633Z,937.04
2017-10-25T00:28:59.571Z,937.01
2017-10-25T00:29:27.584Z,936.98
2017-10-25T00:29:55.785Z,936.98
2017-10-25T00:30:23.760Z,937
2017-10-25T00:30:51.780Z,936.92
2017-10-25T00:31:19.695Z,937.02
2017-10-25T00:31:47.514Z,937
2017-10-25T00:32:15.666Z,937.02
2017-10-25T00:32:43.790Z,937.02
2017-10-25T00:33:11.950Z,937.01
2017-10-25T00:33:39.973Z,936.98
2017-10-25T00:34:07.907Z,937.04
2017-10-25T00:34:35.807Z,936.98
2017-10-25T00:35:03.990Z,937.03
2017-10-25T00:35:31.893Z,937.02
2017-10-25T00:36:00.020Z,937.01
2017-10-25T00:36:28.105Z,937.02
2017-10-25T00:36:56.006Z,937.03
2017-10-25T00:37:24.042Z,937
2017-10-25T00:37:52.048Z,937
2017-10-25T00:38:20.054Z,937.02
2017-10-25T00:38:47.947Z,937.03
2017-10-25T00:39:16.074Z,937.04
2017-10-25T00:39:43.998Z,937.01
2017-10-25T00:40:12.132Z,937.02
2017-10-25T00:40:40.147Z,937.04
2017-10-25T00:41:08.078Z,937.04
2017-10-25T00:41:35.968Z,937
2017-10-25T00:42:03.989Z,937.01
2017-10-25T00:42:31.992Z,937.03
2017-10-25T00:43:00.117Z,937.02
2017-10-25T00:43:28.229Z,936.99
2017-10-25T00:43:56.044Z,936.98
2017-10-25T00:44:24.165Z,937.02
2017-10-25T00:44:52.193Z,937.02
2017-10-25T00:45:20.320Z,937.05
2017-10-25T00:45:48.086Z,937.05
2017-10-25T00:46:16.086Z,937.03
2017-10-25T00:46:44.219Z,937.03
2017-10-25T00:47:12.317Z,937.03
2017-10-25T00:47:40.465Z,937.02
2017-10-25T00:48:08.593Z,937.04
2017-10-25T00:48:36.532Z,937.04
2017-10-25T00:49:04.659Z,937.05
2017-10-25T00:49:32.690Z,937.03
2017-10-25T00:50:00.837Z,937.04
2017-10-25T00:50:28.876Z,937.05
2017-10-25T00:50:57.008Z,936.99
2017-10-25T00:51:25.157Z,937.02
2017-10-25T00:51:53.169Z,937.04
2017-10-25T00:52:21.214Z,937.03
2017-10-25T00:52:49.331Z,937
2017-10-25T00:53:17.275Z,937.01
2017-10-25T00:53:45.288Z,936.98
2017-10-25T00:54:13.204Z,937.01
2017-10-25T00:54:41.117Z,937.07
2017-10-25T00:55:09.138Z,937.03
2017-10-25T00:55:37.294Z,937.05
2017-10-25T00:56:05.330Z,937.02
2017-10-25T00:56:33.359Z,937.06
2017-10-25T00:57:01.114Z,937
2017-10-25T00:57:29.148Z,937
2017-10-25T00:57:57.174Z,936.99
2017-10-25T00:58:25.306Z,937
2017-10-25T00:58:53.403Z,936.96
2017-10-25T00:59:21.414Z,936.98
2017-10-25T00:59:49.520Z,936.97
2017-10-25T01:00:17.594Z,936.95
2017-10-25T01:00:45.622Z,936.96
2017-10-25T01:01:13.588Z,936.98
2017-10-25T01:01:41.606Z,937.02
2017-10-25T01:02:09.609Z,937.02
2017-10-25T01:02:37.641Z,937.02
2017-10-25T01:03:05.667Z,936.99
2017-10-25T01:03:33.786Z,936.99
2017-10-25T01:04:01.743Z,936.97
2017-10-25T01:04:29.767Z,936.99
2017-10-25T01:04:57.831Z,936.97
2017-10-25T01:05:25.925Z,937
2017-10-25T01:05:54.110Z,936.99
2017-10-25T01:06:22.243Z,937
2017-10-25T01:06:50.382Z,936.95
2017-10-25T01:07:18.388Z,936.99
2017-10-25T01:07:46.497Z,936.96
2017-10-25T01:08:14.630Z,936.93
2017-10-25T01:08:42.629Z,936.96
2017-10-25T01:09:10.678Z,937
2017-10-25T01:09:38.382Z,937.01
2017-10-25T01:10:06.428Z,937.04
2017-10-25T01:10:34.550Z,937
2017-10-25T01:11:02.578Z,936.95
2017-10-25T01:11:30.379Z,936.96
2017-10-25T01:11:58.405Z,936.95
2017-10-25T01:12:26.414Z,936.94
2017-10-25T01:12:54.484Z,936.95
2017-10-25T01:13:22.598Z,936.97
2017-10-25T01:13:50.608Z,936.96
2017-10-25T01:14:18.692Z,936.98
2017-10-25T01:14:46.820Z,936.97
2017-10-25T01:15:14.947Z,936.97
2017-10-25T01:15:42.992Z,936.97
2017-10-25T01:16:11.112Z,936.97
2017-10-25T01:16:39.026Z,937.01
2017-10-25T01:17:07.122Z,936.97
2017-10-25T01:17:35.267Z,936.96
2017-10-25T01:18:03.312Z,936.97
2017-10-25T01:18:31.333Z,937.01
2017-10-25T01:18:59.225Z,937
2017-10-25T01:19:27.163Z,937
2017-10-25T01:19:55.278Z,936.97
2017-10-25T01:20:23.486Z,937
2017-10-25T01:20:51.613Z,937
2017-10-25T01:21:19.604Z,936.99
2017-10-25T01:21:47.722Z,936.97
2017-10-25T01:22:15.846Z,936.99
2017-10-25T01:22:43.968Z,936.95
2017-10-25T01:23:12.047Z,936.98
2017-10-25T01:23:40.068Z,937.01
2017-10-25T01:24:08.034Z,936.95
2017-10-25T01:24:36.145Z,936.96
2017-10-25T01:25:04.161Z,936.93
2017-10-25T01:25:32.064Z,936.94
2017-10-25T01:26:00.078Z,936.95
2017-10-25T01:26:28.124Z,936.92
2017-10-25T01:26:56.245Z,936.9
2017-10-25T01:27:24.066Z,936.94
2017-10-25T01:27:52.107Z,936.93
2017-10-25T01:28:20.225Z,936.95
2017-10-25T01:28:48.218Z,936.95
2017-10-25T01:29:16.332Z,936.91
2017-10-25T01:29:44.067Z,936.88
2017-10-25T01:30:12.172Z,936.91
2017-10-25T01:30:40.167Z,936.9
2017-10-25T01:31:08.217Z,936.93
2017-10-25T01:31:36.025Z,936.94
2017-10-25T01:32:04.028Z,936.9
2017-10-25T01:32:32.161Z,936.91
2017-10-25T01:33:00.160Z,936.92
2017-10-25T01:33:28.294Z,936.91
2017-10-25T01:33:56.110Z,936.92
2017-10-25T01:34:23.917Z,936.9
2017-10-25T01:34:51.818Z,936.95
2017-10-25T01:35:19.644Z,936.9
2017-10-25T01:35:47.548Z,936.89
2017-10-25T01:36:15.561Z,936.92
2017-10-25T01:36:43.385Z,936.89
2017-10-25T01:37:11.293Z,936.91
2017-10-25T01:37:39.303Z,936.91
2017-10-25T01:38:07.443Z,936.92
2017-10-25T01:38:35.550Z,936.92
2017-10-25T01:39:03.669Z,936.95
2017-10-25T01:39:31.607Z,936.9
2017-10-25T01:39:59.308Z,936.91
2017-10-25T01:40:27.418Z,936.92
2017-10-25T01:40:55.565Z,936.87
2017-10-25T01:41:23.946Z,936.94
2017-10-25T01:41:51.960Z,936.95
2017-10-25T01:42:19.978Z,936.95
2017-10-25T01:42:47.902Z,936.91
2017-10-25T01:43:15.906Z,936.93
2017-10-25T01:43:43.925Z,936.94
2017-10-25T01:44:12.079Z,936.92
2017-10-25T01:44:40.065Z,936.93
2017-10-25T01:45:08.163Z,936.95
2017-10-25T01:45:36.282Z,936.96
2017-10-25T01:46:04.111Z,936.97
2017-10-25T01:46:32.107Z,936.92
2017-10-25T01:47:00.106Z,936.95
2017-10-25T01:47:28.133Z,936.94
2017-10-25T01:47:56.238Z,936.93
2017-10-25T01:48:24.353Z,936.94
2017-10-25T01:48:52.367Z,936.96
2017-10-25T01:49:20.486Z,936.94
2017-10-25T01:49:48.479Z,936.94
2017-10-25T01:50:16.403Z,936.97
2017-10-25T01:50:44.424Z,936.94
2017-10-25T01:51:12.325Z,936.94
2017-10-25T01:51:40.434Z,936.95
2017-10-25T01:52:08.454Z,936.9
2017-10-25T01:52:36.447Z,936.89
2017-10-25T01:53:04.466Z,936.91
2017-10-25T01:53:32.562Z,936.91
2017-10-25T01:54:00.663Z,936.89
2017-10-25T01:54:28.563Z,936.91
2017-10-25T01:54:56.707Z,936.88
2017-10-25T01:55:24.821Z,936.92
2017-10-25T01:55:52.922Z,936.91
2017-10-25T01:56:20.910Z,936.88
2017-10-25T01:56:48.839Z,936.9
2017-10-25T01:57:16.742Z,936.9
2017-10-25T01:57:44.651Z,936.91
2017-10-25T01:58:12.775Z,936.92
2017-10-25T01:58:40.872Z,936.88
2017-10-25T01:59:08.989Z,936.86
2017-10-25T01:59:37.027Z,936.88
2017-10-25T02:00:05.053Z,936.94
2017-10-25T02:00:33.071Z,936.91
2017-10-25T02:01:01.205Z,936.93
2017-10-25T02:01:29.218Z,936.89
2017-10-25T02:01:57.363Z,936.85
2017-10-25T02:02:25.318Z,936.89
2017-10-25T02:02:53.301Z,936.87
2017-10-25T02:03:21.429Z,936.88
2017-10-25T02:03:49.452Z,936.85
2017-10-25T02:04:17.591Z,936.85
2017-10-25T02:04:45.725Z,936.88
2017-10-25T02:05:13.748Z,936.88
2017-10-25T02:05:41.661Z,936.87
2017-10-25T02:06:09.699Z,936.87
2017-10-25T02:06:37.835Z,936.87
2017-10-25T02:07:05.825Z,936.86
2017-10-25T02:07:33.933Z,936.85
2017-10-25T02:08:02.042Z,936.83
2017-10-25T02:08:29.966Z,936.85
2017-10-25T02:08:57.973Z,936.86
2017-10-25T02:09:26.133Z,936.83
2017-10-25T02:09:54.142Z,936.81
2017-10-25T02:10:22.165Z,936.83
2017-10-25T02:10:50.051Z,936.79
2017-10-25T02:11:18.132Z,936.83
2017-10-25T02:11:46.028Z,936.88
2017-10-25T02:12:14.033Z,936.84
2017-10-25T02:12:41.971Z,936.83
2017-10-25T02:13:09.894Z,936.83
2017-10-25T02:13:37.924Z,936.85
2017-10-25T02:14:06.018Z,936.87
2017-10-25T02:14:33.950Z,936.85
2017-10-25T02:15:01.770Z,936.85
2017-10-25T02:15:29.682Z,936.8
2017-10-25T02:15:57.885Z,936.83
2017-10-25T02:16:25.698Z,936.8
2017-10-25T02:16:53.798Z,936.79
2017-10-25T02:17:21.903Z,936.77
2017-10-25T02:17:49.846Z,936.78
2017-10-25T02:18:17.929Z,936.74
2017-10-25T02:18:46.050Z,936.76
2017-10-25T02:19:13.956Z,936.76
2017-10-25T02:19:41.968Z,936.78
2017-10-25T02:20:10.094Z,936.76
2017-10-25T02:20:38.230Z,936.75
2017-10-25T02:21:06.452Z,936.75
2017-10-25T02:21:34.437Z,936.71
2017-10-25T02:22:02.460Z,936.78
2017-10-25T02:22:30.477Z,936.71
2017-10-25T02:22:58.399Z,936.73
2017-10-25T02:23:26.525Z,936.73
2017-10-25T02:23:54.637Z,936.73
2017-10-25T02:24:22.636Z,936.74
2017-10-25T02:24:50.653Z,936.69
2017-10-25T02:25:18.776Z,936.74
2017-10-25T02:25:46.896Z,936.72
2017-10-25T02:26:14.907Z,936.75
2017-10-25T02:26:43.043Z,936.72
2017-10-25T02:27:11.055Z,936.71
2017-10-25T02:27:39.072Z,936.71
2017-10-25T02:28:07.069Z,936.75
2017-10-25T02:28:35.098Z,936.75
2017-10-25T02:29:03.135Z,936.75
2017-10-25T02:29:31.264Z,936.72
2017-10-25T02:29:59.387Z,936.7
2017-10-25T02:30:27.413Z,936.72
2017-10-25T02:30:55.535Z,936.68
2017-10-25T02:31:23.726Z,936.67
2017-10-25T02:31:51.729Z,936.71
2017-10-25T02:32:19.857Z,936.69
2017-10-25T02:32:47.895Z,936.71
2017-10-25T02:33:15.933Z,936.7
2017-10-25T02:33:43.866Z,936.69
2017-10-25T02:34:11.881Z,936.65
2017-10-25T02:34:39.931Z,936.62
2017-10-25T02:35:07.799Z,936.65
2017-10-25T02:35:35.808Z,936.67
2017-10-25T02:36:04.089Z,936.64
2017-10-25T02:36:31.991Z,936.64
2017-10-25T02:36:59.905Z,936.65
2017-10-25T02:37:27.997Z,936.63
2017-10-25T02:37:56.043Z,936.64
2017-10-25T02:38:24.160Z,936.65
2017-10-25T02:38:52.149Z,936.63
2017-10-25T02:39:20.040Z,936.63
2017-10-25T02:39:47.959Z,936.63
2017-10-25T02:40:16.079Z,936.62
2017-10-25T02:40:44.082Z,936.61
2017-10-25T02:41:11.958Z,936.6
2017-10-25T02:41:40.094Z,936.56
2017-10-25T02:42:08.126Z,936.61
2017-10-25T02:42:36.127Z,936.56
2017-10-25T02:43:04.233Z,936.55
2017-10-25T02:43:32.229Z,936.56
2017-10-25T02:44:00.327Z,936.52
2017-10-25T02:44:28.342Z,936.51
2017-10-25T02:44:56.363Z,936.49
2017-10-25T02:45:24.289Z,936.5
2017-10-25T02:45:52.239Z,936.48
2017-10-25T02:46:20.466Z,936.5
2017-10-25T02:46:48.565Z,936.52
2017-10-25T02:47:16.564Z,936.43
2017-10-25T02:47:44.571Z,936.43
2017-10-25T02:48:12.679Z,936.43
2017-10-25T02:48:40.814Z,936.45
2017-10-25T02:49:08.640Z,936.41
2017-10-25T02:49:36.774Z,936.39
2017-10-25T02:50:04.904Z,936.41
2017-10-25T02:50:33.009Z,936.41
2017-10-25T02:51:01.021Z,936.39
2017-10-25T02:51:29.235Z,936.4
2017-10-25T02:51:57.128Z,936.39
2017-10-25T02:52:24.919Z,936.37
2017-10-25T02:52:53.039Z,936.4
2017-10-25T02:53:20.970Z,936.4
2017-10-25T02:53:48.786Z,936.37
2017-10-25T02:54:16.719Z,936.37
2017-10-25T02:54:44.858Z,936.43
2017-10-25T02:55:12.870Z,936.35
2017-10-25T02:55:40.907Z,936.41
2017-10-25T02:56:09.023Z,936.45
2017-10-25T02:56:37.139Z,936.41
2017-10-25T02:57:05.242Z,936.42
2017-10-25T02:57:33.351Z,936.38
2017-10-25T02:58:01.437Z,936.4
2017-10-25T02:58:29.366Z,936.38
2017-10-25T02:58:57.410Z,936.38
2017-10-25T02:59:25.444Z,936.36
2017-10-25T02:59:53.471Z,936.37
2017-10-25T03:00:21.402Z,936.36
2017-10-25T03:00:49.499Z,936.34
2017-10-25T03:01:17.736Z,936.31
2017-10-25T03:01:45.536Z,936.31
2017-10-25T03:02:13.678Z,936.33
2017-10-25T03:02:41.775Z,936.32
2017-10-25T03:03:09.795Z,936.32
2017-10-25T03:03:37.808Z,936.3
2017-10-25T03:04:05.824Z,936.28
2017-10-25T03:04:33.831Z,936.28
2017-10-25T03:05:01.727Z,936.28
2017-10-25T03:05:29.661Z,936.28
2017-10-25T03:05:57.786Z,936.32
2017-10-25T03:06:25.614Z,936.27
2017-10-25T03:06:53.535Z,936.28
2017-10-25T03:07:21.545Z,936.27
2017-10-25T03:07:49.662Z,936.27
2017-10-25T03:08:17.457Z,936.24
2017-10-25T03:08:45.569Z,936.22
2017-10-25T03:09:13.564Z,936.21
2017-10-25T03:09:41.384Z,936.24
2017-10-25T03:10:09.371Z,936.22
2017-10-25T03:10:37.304Z,936.2
2017-10-25T03:11:05.412Z,936.23
2017-10-25T03:11:33.539Z,936.15
2017-10-25T03:12:01.483Z,936.15
2017-10-25T03:12:29.597Z,936.17
2017-10-25T03:12:57.518Z,936.15
2017-10-25T03:13:25.641Z,936.16
2017-10-25T03:13:53.583Z,936.16
2017-10-25T03:14:21.691Z,936.2
2017-10-25T03:14:49.506Z,936.15
2017-10-25T03:15:17.530Z,936.14
2017-10-25T03:15:45.561Z,936.11
2017-10-25T03:16:13.665Z,936.13
2017-10-25T03:16:41.675Z,936.1
2017-10-25T03:17:09.709Z,936.1
2017-10-25T03:17:37.716Z,936.13
2017-10-25T03:18:05.734Z,936.11
2017-10-25T03:18:33.677Z,936.1
2017-10-25T03:19:01.800Z,936.07
2017-10-25T03:19:29.723Z,936.15
2017-10-25T03:19:57.753Z,936.12
2017-10-25T03:20:25.743Z,936.09
2017-10-25T03:20:53.691Z,936.08
2017-10-25T03:21:21.804Z,936.1
2017-10-25T03:21:49.947Z,936.13
2017-10-25T03:22:17.981Z,936.1
2017-10-25T03:22:46.017Z,936.08
2017-10-25T03:23:14.027Z,936.1
2017-10-25T03:23:42.022Z,936.1
2017-10-25T03:24:10.137Z,936.11
2017-10-25T03:24:38.250Z,936.1
2017-10-25T03:25:06.267Z,936.1
2017-10-25T03:25:34.278Z,936.11
2017-10-25T03:26:02.305Z,936.09
2017-10-25T03:26:30.216Z,936.05
2017-10-25T03:26:58.254Z,936.06
2017-10-25T03:27:26.371Z,936.04
2017-10-25T03:27:54.357Z,936.04
2017-10-25T03:28:22.174Z,936.04
2017-10-25T03:28:50.180Z,936.03
2017-10-25T03:29:18.304Z,936.04
2017-10-25T03:29:46.186Z,936.01
2017-10-25T03:30:14.125Z,935.99
2017-10-25T03:30:42.219Z,936
2017-10-25T03:31:10.364Z,936.01
2017-10-25T03:31:38.374Z,935.98
2017-10-25T03:32:06.368Z,935.95
2017-10-25T03:32:34.317Z,936.01
2017-10-25T03:33:02.324Z,936.02
2017-10-25T03:33:30.338Z,935.98
2017-10-25T03:33:58.453Z,936
2017-10-25T03:34:26.482Z,936.02
2017-10-25T03:34:54.424Z,935.99
2017-10-25T03:35:22.428Z,935.98
2017-10-25T03:35:50.542Z,936.04
2017-10-25T03:36:18.550Z,935.97
2017-10-25T03:36:46.564Z,935.95
2017-10-25T03:37:14.506Z,935.98
2017-10-25T03:37:42.531Z,936
2017-10-25T03:38:10.557Z,935.95
2017-10-25T03:38:38.680Z,935.96
2017-10-25T03:39:06.783Z,935.95
2017-10-25T03:39:34.720Z,935.97
2017-10-25T03:40:02.729Z,935.95
2017-10-25T03:40:30.746Z,935.97
2017-10-25T03:40:58.754Z,935.96
2017-10-25T03:41:26.674Z,935.96
2017-10-25T03:41:54.805Z,935.96
2017-10-25T03:42:22.729Z,935.97
2017-10-25T03:42:50.736Z,935.92
2017-10-25T03:43:18.659Z,935.98
2017-10-25T03:43:46.696Z,935.93
2017-10-25T03:44:14.609Z,935.92
2017-10-25T03:44:42.658Z,935.93
2017-10-25T03:45:10.576Z,935.9
2017-10-25T03:45:38.709Z,935.93
2017-10-25T03:46:06.714Z,935.9
2017-10-25T03:46:34.836Z,935.88
2017-10-25T03:47:02.855Z,935.88
2017-10-25T03:47:30.895Z,935.89
2017-10-25T03:47:59.017Z,935.93
2017-10-25T03:48:27.038Z,935.9
2017-10-25T03:48:55.126Z,935.89
2017-10-25T03:49:23.147Z,935.87
2017-10-25T03:49:51.285Z,935.88
2017-10-25T03:50:19.217Z,935.9
2017-10-25T03:50:47.267Z,935.9
2017-10-25T03:51:15.287Z,935.86
2017-10-25T03:51:43.235Z,935.87
2017-10-25T03:52:11.341Z,935.85
2017-10-25T03:52:39.469Z,935.79
2017-10-25T03:53:07.282Z,935.82
2017-10-25T03:53:35.418Z,935.8
2017-10-25T03:54:03.442Z,935.86
2017-10-25T03:54:31.261Z,935.82
2017-10-25T03:54:59.385Z,935.82
2017-10-25T03:55:27.480Z,935.79
2017-10-25T03:55:55.555Z,935.84
2017-10-25T03:56:23.578Z,935.79
2017-10-25T03:56:51.697Z,935.75
2017-10-25T03:57:19.611Z,935.79
2017-10-25T03:57:47.698Z,935.78
2017-10-25T03:58:15.698Z,935.8
2017-10-25T03:58:43.822Z,935.8
2017-10-25T03:59:11.937Z,935.77
2017-10-25T03:59:40.071Z,935.78
2017-10-25T04:00:08.177Z,935.77
2017-10-25T04:00:36.193Z,935.76
2017-10-25T04:01:04.222Z,935.75
2017-10-25T04:01:32.242Z,935.78
2017-10-25T04:02:00.629Z,935.76
2017-10-25T04:02:28.663Z,935.78
2017-10-25T04:02:56.681Z,935.74
2017-10-25T04:03:24.759Z,935.68
2017-10-25T04:03:52.770Z,935.71
2017-10-25T04:04:20.662Z,935.72
2017-10-25T04:04:48.681Z,935.69
2017-10-25T04:05:16.592Z,935.72
2017-10-25T04:05:44.588Z,935.68
2017-10-25T04:06:12.603Z,935.67
2017-10-25T04:06:40.624Z,935.73
2017-10-25T04:07:08.625Z,935.69
2017-10-25T04:07:36.768Z,935.68
2017-10-25T04:08:04.804Z,935.68
2017-10-25T04:08:32.805Z,935.66
2017-10-25T04:09:00.801Z,935.7
2017-10-25T04:09:28.795Z,935.68
2017-10-25T04:09:56.840Z,935.65
2017-10-25T04:10:24.927Z,935.64
2017-10-25T04:10:52.818Z,935.63
2017-10-25T04:11:20.831Z,935.65
2017-10-25T04:11:48.950Z,935.63
2017-10-25T04:12:16.868Z,935.67
2017-10-25T04:12:44.881Z,935.6
2017-10-25T04:13:12.878Z,935.65
2017-10-25T04:13:40.995Z,935.62
2017-10-25T04:14:09.030Z,935.59
2017-10-25T04:14:37.054Z,935.6
2017-10-25T04:15:05.170Z,935.59
2017-10-25T04:15:33.187Z,935.62
2017-10-25T04:16:01.186Z,935.6
2017-10-25T04:16:29.188Z,935.59
2017-10-25T04:16:57.434Z,935.57
2017-10-25T04:17:25.245Z,935.55
2017-10-25T04:17:53.066Z,935.53
2017-10-25T04:18:20.969Z,935.55
2017-10-25T04:18:48.996Z,935.54
2017-10-25T04:19:17.045Z,935.52
2017-10-25T04:19:45.161Z,935.54
2017-10-25T04:20:13.064Z,935.52
2017-10-25T04:20:41.000Z,935.54
2017-10-25T04:21:09.047Z,935.55
2017-10-25T04:21:37.165Z,935.55
2017-10-25T04:22:05.202Z,935.53
2017-10-25T04:22:33.220Z,935.51
2017-10-25T04:23:01.326Z,935.54
2017-10-25T04:23:29.206Z,935.56
2017-10-25T04:23:57.322Z,935.55
2017-10-25T04:24:25.319Z,935.56
2017-10-25T04:24:53.451Z,935.58
2017-10-25T04:25:21.485Z,935.53
2017-10-25T04:25:49.391Z,935.54
2017-10-25T04:26:17.339Z,935.47
2017-10-25T04:26:45.356Z,935.54
2017-10-25T04:27:13.500Z,935.5
2017-10-25T04:27:41.605Z,935.54
2017-10-25T04:28:09.619Z,935.48
2017-10-25T04:28:37.639Z,935.47
2017-10-25T04:29:05.644Z,935.46
2017-10-25T04:29:33.687Z,935.48
2017-10-25T04:30:01.725Z,935.49
2017-10-25T04:30:29.736Z,935.47
2017-10-25T04:30:57.840Z,935.48
2017-10-25T04:31:25.817Z,935.47
2017-10-25T04:31:53.722Z,935.5
2017-10-25T04:32:21.984Z,935.47
2017-10-25T04:32:50.082Z,935.49
2017-10-25T04:33:18.108Z,935.47
2017-10-25T04:33:46.127Z,935.49
2017-10-25T04:34:14.251Z,935.47
2017-10-25T04:34:42.265Z,935.45
2017-10-25T04:35:10.084Z,935.46
2017-10-25T04:35:38.208Z,935.49
2017-10-25T04:36:06.033Z,935.47
2017-10-25T04:36:34.167Z,935.46
2017-10-25T04:37:02.015Z,935.47
2017-10-25T04:37:30.129Z,935.45
2017-10-25T04:37:58.132Z,935.45
2017-10-25T04:38:26.217Z,935.45
2017-10-25T04:38:54.110Z,935.42
2017-10-25T04:39:22.028Z,935.4
2017-10-25T04:39:50.046Z,935.37
2017-10-25T04:40:18.153Z,935.38
2017-10-25T04:40:46.292Z,935.38
2017-10-25T04:41:14.274Z,935.39
2017-10-25T04:41:42.391Z,935.34
2017-10-25T04:42:10.231Z,935.4
2017-10-25T04:42:38.130Z,935.38
2017-10-25T04:43:06.141Z,935.43
2017-10-25T04:43:33.976Z,935.42
2017-10-25T04:44:01.968Z,935.41
2017-10-25T04:44:29.892Z,935.42
2017-10-25T04:44:57.997Z,935.44
2017-10-25T04:45:25.897Z,935.41
2017-10-25T04:45:53.821Z,935.43
2017-10-25T04:46:21.920Z,935.43
2017-10-25T04:46:49.915Z,935.4
2017-10-25T04:47:17.916Z,935.39
2017-10-25T04:47:45.825Z,935.38
2017-10-25T04:48:13.941Z,935.36
2017-10-25T04:48:41.834Z,935.32
2017-10-25T04:49:09.853Z,935.3
2017-10-25T04:49:37.844Z,935.33
2017-10-25T04:50:05.896Z,935.3
2017-10-25T04:50:33.722Z,935.3
2017-10-25T04:51:01.624Z,935.29
2017-10-25T04:51:29.650Z,935.28
2017-10-25T04:51:57.731Z,935.28
2017-10-25T04:52:25.976Z,935.25
2017-10-25T04:52:53.908Z,935.24
2017-10-25T04:53:21.857Z,935.26
2017-10-25T04:53:49.754Z,935.32
2017-10-25T04:54:17.773Z,935.28
2017-10-25T04:54:45.775Z,935.25
2017-10-25T04:55:13.789Z,935.24
2017-10-25T04:55:41.903Z,935.25
2017-10-25T04:56:09.918Z,935.3
2017-10-25T04:56:38.033Z,935.22
2017-10-25T04:57:06.173Z,935.27
2017-10-25T04:57:34.290Z,935.24
2017-10-25T04:58:02.306Z,935.25
2017-10-25T04:58:30.330Z,935.22
2017-10-25T04:58:58.261Z,935.27
2017-10-25T04:59:26.388Z,935.26
2017-10-25T04:59:54.397Z,935.27
2017-10-25T05:00:22.404Z,935.26
2017-10-25T05:00:50.228Z,935.25
2017-10-25T05:01:18.227Z,935.23
2017-10-25T05:01:46.258Z,935.3
2017-10-25T05:02:14.370Z,935.27
2017-10-25T05:02:42.492Z,935.28
2017-10-25T05:03:10.605Z,935.27
2017-10-25T05:03:38.519Z,935.28
2017-10-25T05:04:06.614Z,935.28
2017-10-25T05:04:34.738Z,935.28
2017-10-25T05:05:02.764Z,935.27
2017-10-25T05:05:30.787Z,935.3
2017-10-25T05:05:58.699Z,935.35
2017-10-25T05:06:26.734Z,935.26
2017-10-25T05:06:54.628Z,935.31
2017-10-25T05:07:22.564Z,935.28
2017-10-25T05:07:50.502Z,935.28
2017-10-25T05:08:18.517Z,935.31
2017-10-25T05:08:46.642Z,935.29
2017-10-25T05:09:14.779Z,935.29
2017-10-25T05:09:42.892Z,935.32
2017-10-25T05:10:10.898Z,935.28
2017-10-25T05:10:38.804Z,935.28
2017-10-25T05:11:06.832Z,935.27
2017-10-25T05:11:35.642Z,935.29
2017-10-25T05:12:03.453Z,935.3
2017-10-25T05:12:31.485Z,935.25
2017-10-25T05:12:59.598Z,935.26
2017-10-25T05:13:27.325Z,935.33
2017-10-25T05:13:55.335Z,935.29
2017-10-25T05:14:23.376Z,935.34
2017-10-25T05:14:51.283Z,935.33
2017-10-25T05:15:19.387Z,935.32
2017-10-25T05:15:47.492Z,935.34
2017-10-25T05:16:15.506Z,935.32
2017-10-25T05:16:43.485Z,935.33
2017-10-25T05:17:11.416Z,935.33
2017-10-25T05:17:39.633Z,935.32
2017-10-25T05:18:07.771Z,935.34
2017-10-25T05:18:35.790Z,935.35
2017-10-25T05:19:03.692Z,935.33
2017-10-25T05:19:31.548Z,935.35
2017-10-25T05:19:59.475Z,935.34
2017-10-25T05:20:27.509Z,935.32
2017-10-25T05:20:55.639Z,935.32
2017-10-25T05:21:23.632Z,935.32
2017-10-25T05:21:51.643Z,935.31
2017-10-25T05:22:19.660Z,935.28
2017-10-25T05:22:47.878Z,935.31
2017-10-25T05:23:15.911Z,935.29
2017-10-25T05:23:43.808Z,935.27
2017-10-25T05:24:11.920Z,935.27
2017-10-25T05:24:39.735Z,935.29
2017-10-25T05:25:07.758Z,935.24
2017-10-25T05:25:35.768Z,935.23
2017-10-25T05:26:03.793Z,935.22
2017-10-25T05:26:31.899Z,935.24
2017-10-25T05:26:59.827Z,935.23
2017-10-25T05:27:27.842Z,935.22
2017-10-25T05:27:55.669Z,935.22
2017-10-25T05:28:23.592Z,935.24
2017-10-25T05:28:51.519Z,935.24
2017-10-25T05:29:19.616Z,935.2
2017-10-25T05:29:47.641Z,935.17
2017-10-25T05:30:15.675Z,935.17
2017-10-25T05:30:43.659Z,935.21
2017-10-25T05:31:11.816Z,935.19
2017-10-25T05:31:39.894Z,935.22
2017-10-25T05:32:07.999Z,935.23
2017-10-25T05:32:36.219Z,935.2
2017-10-25T05:33:04.350Z,935.22
2017-10-25T05:33:32.271Z,935.2
2017-10-25T05:34:00.309Z,935.18
2017-10-25T05:34:28.445Z,935.18
2017-10-25T05:34:56.470Z,935.21
2017-10-25T05:35:24.477Z,935.16
2017-10-25T05:35:52.485Z,935.16
2017-10-25T05:36:20.408Z,935.17
2017-10-25T05:36:48.420Z,935.19
2017-10-25T05:37:16.431Z,935.16
2017-10-25T05:37:44.491Z,935.18
2017-10-25T05:38:12.598Z,935.15
2017-10-25T05:38:40.520Z,935.17
2017-10-25T05:39:08.550Z,935.14
2017-10-25T05:39:36.371Z,935.15
2017-10-25T05:40:04.206Z,935.14
2017-10-25T05:40:32.350Z,935.12
2017-10-25T05:41:00.369Z,935.09
2017-10-25T05:41:28.485Z,935.13
2017-10-25T05:41:56.604Z,935.17
2017-10-25T05:42:24.697Z,935.14
2017-10-25T05:42:52.691Z,935.17
2017-10-25T05:43:20.801Z,935.13
2017-10-25T05:43:48.901Z,935.16
2017-10-25T05:44:16.937Z,935.19
2017-10-25T05:44:44.948Z,935.16
2017-10-25T05:45:12.940Z,935.17
2017-10-25T05:45:41.046Z,935.17
2017-10-25T05:46:09.053Z,935.19
2017-10-25T05:46:37.091Z,935.18
2017-10-25T05:47:05.024Z,935.19
2017-10-25T05:47:33.105Z,935.18
2017-10-25T05:48:01.019Z,935.16
2017-10-25T05:48:28.928Z,935.12
2017-10-25T05:48:56.945Z,935.11
2017-10-25T05:49:25.072Z,935.1
2017-10-25T05:49:52.997Z,935.07
2017-10-25T05:50:21.120Z,935.15
2017-10-25T05:50:49.031Z,935.16
2017-10-25T05:51:17.120Z,935.02
2017-10-25T05:51:45.111Z,935.13